Terminal Aerodrome Forecast
Issued by NWS

Home | Current Version | Previous Version | Text Only | Print | Product List | Glossary On
Versions: 1 2 3 4 5 6 7 8 9 10 11 12 13 14 15 16 17 18 19 20 21 22
809
FTUS43 KIND 230242 AAA
TAFBMG
TAF AMD
KBMG 230242Z 2303/2324 24017G26KT P6SM FEW070
     FM230330 24012KT P6SM FEW070
     FM231100 24012KT P6SM VCSH OVC015
     FM231500 26011KT P6SM OVC015
      AMD LTD TO CLD VIS AND WIND TIL 231400=

USA.gov is the U.S. government's official web portal to all federal, state and local government web resources and services.